Time;durP1;ratioP1;P1;durP2;ratioP2;P2;SDS_P1;SDS_P2;PMS_P1;PMS_P2;Temp;Humidity;BMP_temperature;BMP_pressure;BME280_temperature;BME280_humidity;BME280_pressure;Samples;Min_cycle;Max_cycle;Signal;HPM_P1;HPM_P2
2023/03/25 00:00:52;;;;;;;;;;;;;;;23.95;31.35;100549.69;5058776;28;1981;-14
2023/03/25 00:03:18;;;;;;;;;;;;;;;23.99;31.33;100548.34;5059056;28;1103;-13
2023/03/25 00:05:43;;;;;;;;;;;;;;;23.95;31.39;100549.69;5058655;28;1221;-13
2023/03/25 00:08:09;;;;;;;;;;;;;;;23.99;31.17;100548.34;5049393;28;1063;-13
2023/03/25 00:10:35;;;;;;;;;;;;;;;24.02;31.15;100548.03;5055012;28;1187;-13
2023/03/25 00:13:04;;;;;;;;;;;;;;;23.96;31.31;100537.94;5049173;28;1067;-13
2023/03/25 00:15:32;;;;;;;;;;;;;;;24.01;31.32;100542.78;5052637;28;1155;-13
2023/03/25 00:18:00;;;;;;;;;;;;;;;24.04;31.07;100543.31;5048567;28;842;-13
2023/03/25 00:20:26;;;;;;;;;;;;;;;23.97;31.16;100540.44;5058571;28;1163;-13
2023/03/25 00:22:52;;;;;;;;;;;;;;;24.00;31.16;100536.59;5058682;28;1981;-13
2023/03/25 00:25:19;;;;;;;;;;;;;;;23.97;31.16;100537.75;5041516;28;1218;-13
2023/03/25 00:27:49;;;;;;;;;;;;;;;23.97;31.16;100537.75;5049742;28;1134;-15
2023/03/25 00:30:15;;;;;;;;;;;;;;;23.95;31.23;100529.03;5048996;28;1207;-15
2023/03/25 00:32:46;;;;;;;;;;;;;;;23.96;31.21;100532.56;5050167;28;1128;-15
2023/03/25 00:35:12;;;;;;;;;;;;;;;23.91;31.36;100533.06;5039621;28;1290;-14
2023/03/25 00:37:38;;;;;;;;;;;;;;;23.91;31.30;100524.16;5050987;28;1218;-16
2023/03/25 00:40:04;;;;;;;;;;;;;;;23.92;31.43;100518.59;5040448;28;1239;-15
2023/03/25 00:42:30;;;;;;;;;;;;;;;23.91;31.40;100524.16;5057456;28;1910;-16
2023/03/25 00:44:55;;;;;;;;;;;;;;;23.93;31.17;100511.41;5058217;28;1126;-15
2023/03/25 00:47:21;;;;;;;;;;;;;;;23.89;31.45;100515.44;5045949;28;1191;-15
2023/03/25 00:49:47;;;;;;;;;;;;;;;23.90;31.47;100506.38;5033248;28;1048;-15
2023/03/25 00:52:14;;;;;;;;;;;;;;;23.95;31.36;100507.56;5038402;28;1168;-15
2023/03/25 00:54:40;;;;;;;;;;;;;;;23.90;31.59;100504.53;5056676;28;1016;-16
2023/03/25 00:57:05;;;;;;;;;;;;;;;23.88;31.50;100511.91;5045752;28;1128;-15
2023/03/25 00:59:31;;;;;;;;;;;;;;;23.91;31.46;100505.34;5038257;28;1156;-15
2023/03/25 01:01:58;;;;;;;;;;;;;;;23.88;31.43;100498.47;5050517;28;1973;-16
2023/03/25 01:04:24;;;;;;;;;;;;;;;23.95;31.33;100494.13;5052010;28;1091;-15
2023/03/25 01:06:52;;;;;;;;;;;;;;;23.89;31.42;100497.47;5054280;28;913;-15
2023/03/25 01:09:18;;;;;;;;;;;;;;;23.88;31.55;100487.72;5044302;28;1020;-15
2023/03/25 01:11:44;;;;;;;;;;;;;;;23.91;31.44;100486.53;5027394;28;1081;-15
2023/03/25 01:14:11;;;;;;;;;;;;;;;23.88;31.48;100476.13;5037810;28;1196;-15
2023/03/25 01:16:37;;;;;;;;;;;;;;;23.89;31.38;100475.97;5050541;28;1044;-15
2023/03/25 01:19:02;;;;;;;;;;;;;;;23.81;31.51;100475.97;5054594;28;1112;-15
2023/03/25 01:21:28;;;;;;;;;;;;;;;23.78;31.58;100470.94;5057538;28;1898;-15
2023/03/25 01:23:54;;;;;;;;;;;;;;;23.91;31.36;100473.97;5057749;28;1202;-15
2023/03/25 01:26:19;;;;;;;;;;;;;;;23.83;31.51;100464.06;5057395;28;1044;-15
2023/03/25 01:28:45;;;;;;;;;;;;;;;23.84;31.49;100460.34;5043964;28;1068;-14
2023/03/25 01:31:11;;;;;;;;;;;;;;;23.85;31.44;100459.38;5052098;28;904;-15
2023/03/25 01:33:36;;;;;;;;;;;;;;;23.84;31.58;100457.66;5051495;28;1071;-15
2023/03/25 01:36:02;;;;;;;;;;;;;;;23.92;31.40;100450.63;5049274;28;1088;-15
2023/03/25 01:38:29;;;;;;;;;;;;;;;24.06;31.24;100460.69;5057040;28;1155;-15
2023/03/25 01:40:55;;;;;;;;;;;;;;;24.09;30.97;100465.72;5039132;28;1968;-15
2023/03/25 01:43:20;;;;;;;;;;;;;;;24.02;31.31;100459.38;5032937;28;1131;-15
2023/03/25 01:45:46;;;;;;;;;;;;;;;24.02;31.12;100459.38;5019480;28;1128;-15
2023/03/25 01:48:19;;;;;;;;;;;;;;;24.08;31.24;100464.06;5056013;28;1076;-15
2023/03/25 01:50:46;;;;;;;;;;;;;;;24.02;31.22;100459.38;5025961;28;1119;-15
2023/03/25 01:53:12;;;;;;;;;;;;;;;24.05;31.09;100466.22;5050787;28;1005;-15
2023/03/25 01:55:38;;;;;;;;;;;;;;;24.13;31.16;100457.31;5056375;28;881;-15
2023/03/25 01:58:09;;;;;;;;;;;;;;;24.16;31.11;100463.22;5016569;28;1199;-15
2023/03/25 02:00:35;;;;;;;;;;;;;;;24.15;31.17;100460.69;5050055;28;1043;-15
2023/03/25 02:03:00;;;;;;;;;;;;;;;24.07;31.25;100454.28;5026294;28;1973;-15
2023/03/25 02:05:36;;;;;;;;;;;;;;;24.13;31.02;100465.38;5056130;28;1051;-15
2023/03/25 02:08:04;;;;;;;;;;;;;;;24.12;31.09;100458.34;5019477;28;1071;-16
2023/03/25 02:10:30;;;;;;;;;;;;;;;24.20;30.82;100452.97;5032245;28;1408;-15
2023/03/25 02:12:55;;;;;;;;;;;;;;;24.14;30.96;100450.94;5018872;28;1136;-14
2023/03/25 02:15:21;;;;;;;;;;;;;;;24.17;30.97;100450.63;5050043;28;1013;-15
2023/03/25 02:17:55;;;;;;;;;;;;;;;24.12;31.04;100443.06;5010845;28;1117;-15
2023/03/25 02:20:36;;;;;;;;;;;;;;;24.16;30.82;100439.03;5038613;28;1111;-15
2023/03/25 02:23:09;;;;;;;;;;;;;;;24.02;31.03;100445.06;5038395;28;1983;-15
2023/03/25 02:25:50;;;;;;;;;;;;;;;24.04;31.05;100446.56;5025174;28;1203;-15
2023/03/25 02:28:24;;;;;;;;;;;;;;;24.13;31.06;100442.03;5023694;28;1080;-15
2023/03/25 02:31:09;;;;;;;;;;;;;;;24.11;31.03;100449.44;5027986;28;1335;-15
2023/03/25 02:33:38;;;;;;;;;;;;;;;24.14;31.03;100445.56;5038468;28;1454;-16
2023/03/25 02:36:22;;;;;;;;;;;;;;;23.94;31.29;100443.25;5056544;28;1047;-15
2023/03/25 02:38:50;;;;;;;;;;;;;;;24.03;31.28;100436.84;5047967;28;1080;-15
2023/03/25 02:41:24;;;;;;;;;;;;;;;23.94;31.21;100436.00;5033657;28;1906;-15
2023/03/25 02:43:57;;;;;;;;;;;;;;;23.92;31.37;100434.50;5030132;28;1087;-15
2023/03/25 02:46:23;;;;;;;;;;;;;;;23.89;31.25;100430.28;5038249;28;1309;-15
2023/03/25 02:48:59;;;;;;;;;;;;;;;24.06;31.09;100431.13;5028116;28;1184;-15
2023/03/25 02:51:27;;;;;;;;;;;;;;;24.00;31.17;100422.91;5031520;28;1133;-15
2023/03/25 02:53:52;;;;;;;;;;;;;;;23.98;31.13;100409.66;5003421;28;1247;-15
2023/03/25 02:56:21;;;;;;;;;;;;;;;23.95;31.23;100416.22;5037860;28;1076;-15
2023/03/25 02:58:46;;;;;;;;;;;;;;;23.92;31.42;100421.91;5025986;28;1379;-15
2023/03/25 03:01:13;;;;;;;;;;;;;;;24.00;31.21;100413.00;5031531;28;1910;-16
2023/03/25 03:03:40;;;;;;;;;;;;;;;24.05;31.05;100418.72;5031027;28;1469;-15
2023/03/25 03:06:06;;;;;;;;;;;;;;;23.89;31.20;100424.94;5021168;28;1215;-15
2023/03/25 03:08:41;;;;;;;;;;;;;;;24.11;30.88;100421.72;5038170;28;1090;-15
2023/03/25 03:11:10;;;;;;;;;;;;;;;24.03;31.07;100426.09;5036171;28;1132;-15
2023/03/25 03:13:50;;;;;;;;;;;;;;;24.14;30.93;100422.22;5050328;28;1152;-15
2023/03/25 03:16:34;;;;;;;;;;;;;;;24.01;31.03;100406.63;5056403;28;1170;-15
2023/03/25 03:19:06;;;;;;;;;;;;;;;24.05;30.96;100402.59;5055272;28;1143;-15
2023/03/25 03:21:37;;;;;;;;;;;;;;;24.03;31.01;100401.91;5055775;28;2033;-16
2023/03/25 03:24:06;;;;;;;;;;;;;;;24.16;30.92;100390.66;5037544;28;1037;-15
2023/03/25 03:26:42;;;;;;;;;;;;;;;24.01;31.14;100386.97;5053249;28;1092;-15
2023/03/25 03:29:10;;;;;;;;;;;;;;;24.09;30.97;100385.09;5048517;28;1136;-16
2023/03/25 03:31:57;;;;;;;;;;;;;;;24.00;31.13;100388.81;5056593;28;1071;-16
2023/03/25 03:34:26;;;;;;;;;;;;;;;24.04;31.22;100397.41;5051654;28;1072;-15
2023/03/25 03:36:52;;;;;;;;;;;;;;;24.00;31.04;100394.19;5028534;28;1088;-16
2023/03/25 03:39:22;;;;;;;;;;;;;;;23.80;31.57;100380.28;5041834;28;1075;-16
2023/03/25 03:41:49;;;;;;;;;;;;;;;23.91;31.43;100379.09;5034910;28;1988;-16
2023/03/25 03:44:15;;;;;;;;;;;;;;;23.84;31.56;100374.41;5039388;28;906;-15
2023/03/25 03:46:53;;;;;;;;;;;;;;;23.89;31.47;100379.25;5053074;28;1110;-16
2023/03/25 03:49:20;;;;;;;;;;;;;;;25.78;28.96;100384.91;5040516;28;1127;-16
2023/03/25 03:51:51;;;;;;;;;;;;;;;26.19;27.98;100385.53;5041150;28;1119;-16
2023/03/25 03:54:16;;;;;;;;;;;;;;;24.98;29.41;100389.69;5045058;28;1068;-15
2023/03/25 03:56:52;;;;;;;;;;;;;;;24.78;30.50;100382.03;5058992;28;1056;-15
2023/03/25 03:59:36;;;;;;;;;;;;;;;26.82;27.41;100381.56;5041291;28;1782;-16
2023/03/25 04:02:04;;;;;;;;;;;;;;;27.20;26.61;100382.38;5046676;28;1946;-15
2023/03/25 04:04:33;;;;;;;;;;;;;;;27.31;26.39;100384.56;5024815;28;1164;-16
2023/03/25 04:07:03;;;;;;;;;;;;;;;25.52;28.71;100387.97;5053460;28;1183;-15
2023/03/25 04:09:42;;;;;;;;;;;;;;;25.83;28.36;100395.13;5051955;28;1135;-15
2023/03/25 04:12:17;;;;;;;;;;;;;;;25.80;28.50;100392.81;5041666;28;1160;-15
2023/03/25 04:14:43;;;;;;;;;;;;;;;26.04;28.34;100388.22;5033545;28;1179;-16
2023/03/25 04:17:08;;;;;;;;;;;;;;;26.32;27.92;100390.25;5034766;28;1128;-15
2023/03/25 04:19:33;;;;;;;;;;;;;;;26.16;28.24;100396.66;5058331;28;1582;-15
2023/03/25 04:22:00;;;;;;;;;;;;;;;25.74;28.94;100402.44;5048023;28;1984;-15
2023/03/25 04:24:30;;;;;;;;;;;;;;;26.09;28.46;100401.13;5038348;28;1040;-15
2023/03/25 04:26:56;;;;;;;;;;;;;;;26.20;28.42;100407.91;5038819;28;1040;-15
2023/03/25 04:29:22;;;;;;;;;;;;;;;26.34;28.23;100404.41;5042979;28;1047;-15
2023/03/25 04:31:49;;;;;;;;;;;;;;;26.16;28.66;100402.03;5057904;28;1108;-14
2023/03/25 04:34:15;;;;;;;;;;;;;;;25.91;28.57;100396.91;5053103;28;1207;-15
2023/03/25 04:36:41;;;;;;;;;;;;;;;26.13;28.41;100399.72;5056320;28;1171;-15
2023/03/25 04:39:08;;;;;;;;;;;;;;;25.72;28.58;100392.88;5047185;28;1063;-15
2023/03/25 04:41:33;;;;;;;;;;;;;;;23.61;30.53;100390.38;5042625;28;1910;-14
2023/03/25 04:43:59;;;;;;;;;;;;;;;22.38;32.04;100393.34;5057752;28;905;-15
2023/03/25 04:46:24;;;;;;;;;;;;;;;22.64;32.22;100384.44;5058477;28;1032;-15
2023/03/25 04:48:52;;;;;;;;;;;;;;;23.57;30.62;100381.81;5058438;28;1115;-15
2023/03/25 04:51:18;;;;;;;;;;;;;;;24.37;29.63;100375.84;5040133;28;1132;-14
2023/03/25 04:53:43;;;;;;;;;;;;;;;25.31;28.01;100374.16;5049993;28;1361;-15
2023/03/25 04:56:14;;;;;;;;;;;;;;;26.67;26.01;100384.28;5057676;28;983;-15
2023/03/25 04:58:41;;;;;;;;;;;;;;;26.54;26.25;100387.66;5058123;28;1032;-16
2023/03/25 05:01:10;;;;;;;;;;;;;;;26.11;26.96;100389.13;5038041;28;1898;-15
2023/03/25 05:03:38;;;;;;;;;;;;;;;25.07;27.91;100380.56;5033449;28;1088;-15
2023/03/25 05:06:04;;;;;;;;;;;;;;;25.89;27.08;100380.91;5058224;28;1056;-15
2023/03/25 05:08:30;;;;;;;;;;;;;;;26.07;26.96;100374.34;5039635;28;875;-15
2023/03/25 05:10:55;;;;;;;;;;;;;;;25.89;27.21;100380.91;5044479;28;1154;-15
2023/03/25 05:13:21;;;;;;;;;;;;;;;25.54;27.36;100376.00;5045947;28;1072;-14
2023/03/25 05:15:46;;;;;;;;;;;;;;;25.97;26.96;100377.31;5056098;28;1052;-15
2023/03/25 05:18:12;;;;;;;;;;;;;;;25.97;26.98;100373.78;5057477;28;1544;-15
2023/03/25 05:20:38;;;;;;;;;;;;;;;25.49;27.44;100381.06;5048389;28;1068;-15
2023/03/25 05:23:17;;;;;;;;;;;;;;;26.05;27.05;100379.09;5037415;28;1922;-16
2023/03/25 05:25:46;;;;;;;;;;;;;;;23.97;29.50;100379.25;5038006;28;1104;-15
2023/03/25 05:28:12;;;;;;;;;;;;;;;23.00;31.51;100388.75;5037564;28;1091;-15
2023/03/25 05:30:42;;;;;;;;;;;;;;;23.12;31.46;100384.75;5045498;28;1048;-15
2023/03/25 05:33:09;;;;;;;;;;;;;;;22.16;32.90;100384.88;5055236;28;1014;-15
2023/03/25 05:35:35;;;;;;;;;;;;;;;22.44;32.82;100384.66;5045782;28;925;-15
2023/03/25 05:38:00;;;;;;;;;;;;;;;22.17;32.91;100383.84;5043997;28;1143;-14
2023/03/25 05:40:26;;;;;;;;;;;;;;;22.31;32.91;100386.94;5056982;28;1172;-15
2023/03/25 05:42:53;;;;;;;;;;;;;;;22.49;32.75;100386.88;5042275;28;1926;-15
2023/03/25 05:45:19;;;;;;;;;;;;;;;22.55;32.38;100402.31;5045660;28;854;-15
2023/03/25 05:47:45;;;;;;;;;;;;;;;22.57;32.18;100402.97;5041675;28;1119;-15
2023/03/25 05:50:13;;;;;;;;;;;;;;;22.37;32.55;100399.72;5045885;28;1231;-15
2023/03/25 05:52:40;;;;;;;;;;;;;;;23.66;31.16;100395.22;5054808;28;1107;-16
2023/03/25 05:55:06;;;;;;;;;;;;;;;25.57;28.24;100401.75;5037092;28;1064;-15
2023/03/25 05:57:31;;;;;;;;;;;;;;;25.95;27.36;100400.06;5051958;28;964;-15
2023/03/25 05:59:57;;;;;;;;;;;;;;;25.57;27.88;100377.50;5056461;28;1056;-16
2023/03/25 06:02:22;;;;;;;;;;;;;;;26.15;27.38;100376.13;5043505;28;1918;-14
2023/03/25 06:04:49;;;;;;;;;;;;;;;26.93;26.38;100384.78;5048119;28;1143;-15
2023/03/25 06:07:21;;;;;;;;;;;;;;;26.58;26.71;100380.00;5050316;28;1102;-15
2023/03/25 06:09:53;;;;;;;;;;;;;;;26.33;26.99;100373.06;5037826;28;1028;-15
2023/03/25 06:12:19;;;;;;;;;;;;;;;26.55;26.77;100367.75;5049414;28;1024;-15
2023/03/25 06:14:45;;;;;;;;;;;;;;;26.64;26.60;100368.50;5046517;28;1128;-15
2023/03/25 06:17:11;;;;;;;;;;;;;;;26.17;27.34;100374.91;5043603;28;1147;-14
2023/03/25 06:19:39;;;;;;;;;;;;;;;26.59;26.97;100369.03;5046369;28;1127;-15
2023/03/25 06:22:08;;;;;;;;;;;;;;;27.32;26.03;100358.41;5038951;28;1918;-15
2023/03/25 06:24:36;;;;;;;;;;;;;;;27.53;25.90;100357.56;5037708;28;1093;-15
2023/03/25 06:27:02;;;;;;;;;;;;;;;26.79;26.50;100360.38;5048831;28;1191;-15
2023/03/25 06:29:28;;;;;;;;;;;;;;;26.15;27.66;100360.78;5056191;28;1045;-15
2023/03/25 06:31:53;;;;;;;;;;;;;;;26.06;27.67;100363.75;5044436;28;1135;-15
2023/03/25 06:34:19;;;;;;;;;;;;;;;25.59;28.59;100361.97;5053550;28;1088;-15
2023/03/25 06:36:48;;;;;;;;;;;;;;;26.74;26.76;100362.78;5055487;28;1052;-15
2023/03/25 06:39:15;;;;;;;;;;;;;;;27.40;26.14;100366.38;5052830;28;1022;-15
2023/03/25 06:41:40;;;;;;;;;;;;;;;26.41;27.44;100359.50;5024737;28;1913;-14
2023/03/25 06:44:18;;;;;;;;;;;;;;;26.87;26.37;100367.50;5033704;28;1229;-15
2023/03/25 06:46:44;;;;;;;;;;;;;;;26.30;27.69;100370.72;5036270;28;1087;-15
2023/03/25 06:49:35;;;;;;;;;;;;;;;27.26;26.38;100371.66;5049458;28;1457;-14
2023/03/25 06:52:00;;;;;;;;;;;;;;;27.81;25.41;100364.84;5037673;28;1292;-21
2023/03/25 06:54:26;;;;;;;;;;;;;;;26.66;27.02;100371.81;5050865;28;1132;-22
2023/03/25 06:56:51;;;;;;;;;;;;;;;26.29;27.32;100375.28;5051752;28;957;-22
2023/03/25 06:59:17;;;;;;;;;;;;;;;26.70;26.95;100378.53;5056826;28;1118;-22
2023/03/25 07:01:42;;;;;;;;;;;;;;;26.35;27.49;100383.66;5046681;28;1910;-21
2023/03/25 07:04:08;;;;;;;;;;;;;;;27.06;26.77;100384.94;5058518;28;1103;-21
2023/03/25 07:06:34;;;;;;;;;;;;;;;26.80;26.96;100380.91;5053235;28;1164;-22
2023/03/25 07:08:59;;;;;;;;;;;;;;;26.23;27.68;100388.66;5044139;28;898;-25
2023/03/25 07:11:26;;;;;;;;;;;;;;;26.97;26.51;100369.88;5049541;28;1188;-23
2023/03/25 07:13:52;;;;;;;;;;;;;;;27.04;26.81;100378.94;5055483;28;946;-23
2023/03/25 07:16:18;;;;;;;;;;;;;;;27.00;26.29;100375.75;5051452;28;1164;-24
2023/03/25 07:18:44;;;;;;;;;;;;;;;26.44;27.31;100370.94;5056540;28;1079;-22
2023/03/25 07:21:09;;;;;;;;;;;;;;;26.55;27.33;100381.25;5046372;28;1910;-22
2023/03/25 07:23:35;;;;;;;;;;;;;;;26.40;27.62;100389.34;5051446;28;1113;-21
2023/03/25 07:26:01;;;;;;;;;;;;;;;26.49;27.42;100382.81;5044295;28;1076;-22
2023/03/25 07:28:26;;;;;;;;;;;;;;;26.39;27.62;100369.63;5040295;28;1118;-21
2023/03/25 07:30:51;;;;;;;;;;;;;;;26.47;27.42;100371.41;5043734;28;1016;-21
2023/03/25 07:33:17;;;;;;;;;;;;;;;26.28;27.60;100379.00;5050758;28;838;-21
2023/03/25 07:35:42;;;;;;;;;;;;;;;25.74;28.66;100374.69;5042743;28;1096;-15
2023/03/25 07:38:08;;;;;;;;;;;;;;;26.36;27.72;100361.09;5039455;28;1041;-14
2023/03/25 07:40:34;;;;;;;;;;;;;;;26.38;27.36;100367.13;5048983;28;1220;-21
2023/03/25 07:43:00;;;;;;;;;;;;;;;26.48;27.43;100372.22;5046061;28;1901;-21
2023/03/25 07:45:54;;;;;;;;;;;;;;;25.89;28.39;100363.94;5039844;28;1219;-21
2023/03/25 07:48:21;;;;;;;;;;;;;;;25.93;28.46;100370.63;5051241;28;1219;-22
2023/03/25 07:50:48;;;;;;;;;;;;;;;26.71;27.11;100366.69;5050836;28;1179;-21
2023/03/25 07:53:13;;;;;;;;;;;;;;;26.57;27.18;100371.09;5035629;28;1466;-21
2023/03/25 07:55:39;;;;;;;;;;;;;;;26.67;27.49;100365.41;5049015;28;1132;-22
2023/03/25 07:58:04;;;;;;;;;;;;;;;26.62;27.57;100370.53;5052759;28;1055;-22
2023/03/25 08:00:30;;;;;;;;;;;;;;;26.70;27.29;100366.88;5049364;28;1421;-21
2023/03/25 08:02:58;;;;;;;;;;;;;;;26.65;26.98;100367.44;5054003;28;1898;-21
2023/03/25 08:05:23;;;;;;;;;;;;;;;26.67;27.19;100375.34;5053104;28;1207;-21
2023/03/25 08:07:49;;;;;;;;;;;;;;;26.27;27.92;100363.84;5049413;28;1204;-22
2023/03/25 08:10:15;;;;;;;;;;;;;;;26.13;28.54;100367.38;5048126;28;902;-22
2023/03/25 08:12:40;;;;;;;;;;;;;;;26.65;27.54;100362.06;5051674;28;1287;-22
2023/03/25 08:15:06;;;;;;;;;;;;;;;27.15;26.90;100361.38;5038536;28;1230;-21
2023/03/25 08:17:32;;;;;;;;;;;;;;;26.71;27.05;100360.47;5058585;28;1160;-14
2023/03/25 08:19:59;;;;;;;;;;;;;;;26.65;27.69;100362.06;5047647;28;1074;-15
2023/03/25 08:22:25;;;;;;;;;;;;;;;26.19;28.14;100355.03;5037991;28;1886;-15
2023/03/25 08:24:50;;;;;;;;;;;;;;;26.22;28.36;100351.94;5053159;28;1147;-14
2023/03/25 08:27:16;;;;;;;;;;;;;;;26.93;26.87;100344.28;5057587;28;1075;-14
2023/03/25 08:29:41;;;;;;;;;;;;;;;26.77;27.10;100346.22;5057636;28;1044;-15
2023/03/25 08:32:07;;;;;;;;;;;;;;;27.25;26.75;100339.44;5047125;28;1160;-14
2023/03/25 08:34:38;;;;;;;;;;;;;;;27.34;26.49;100343.66;5055881;28;938;-15
2023/03/25 08:37:06;;;;;;;;;;;;;;;27.26;26.65;100347.34;5038161;28;1096;-14
2023/03/25 08:39:38;;;;;;;;;;;;;;;26.81;27.00;100341.28;5054928;28;1144;-15
2023/03/25 08:42:04;;;;;;;;;;;;;;;27.32;26.37;100347.63;5037640;28;1985;-15
2023/03/25 08:44:29;;;;;;;;;;;;;;;27.36;26.27;100341.63;5037802;28;1285;-14
2023/03/25 08:46:55;;;;;;;;;;;;;;;26.82;27.38;100348.34;5056513;28;1137;-14
2023/03/25 08:49:21;;;;;;;;;;;;;;;27.32;26.78;100347.63;5051172;28;1251;-14
2023/03/25 08:51:46;;;;;;;;;;;;;;;26.95;26.89;100336.84;5051125;28;1137;-14
2023/03/25 08:54:12;;;;;;;;;;;;;;;27.20;26.53;100333.78;5040585;28;1088;-15
2023/03/25 08:56:37;;;;;;;;;;;;;;;26.88;27.20;100337.63;5048361;28;1199;-15
2023/03/25 08:59:03;;;;;;;;;;;;;;;27.28;26.96;100332.84;5053725;28;1106;-15
2023/03/25 09:01:28;;;;;;;;;;;;;;;27.12;26.78;100343.72;5040456;28;1983;-14
2023/03/25 09:03:55;;;;;;;;;;;;;;;26.89;27.24;100339.28;5050892;28;1029;-14
2023/03/25 09:06:21;;;;;;;;;;;;;;;27.09;27.21;100338.66;5039033;28;1148;-14
2023/03/25 09:08:47;;;;;;;;;;;;;;;27.28;26.73;100332.84;5040733;28;1029;-14
2023/03/25 09:11:14;;;;;;;;;;;;;;;27.28;27.02;100322.84;5047717;28;1156;-15
2023/03/25 09:13:40;;;;;;;;;;;;;;;27.41;26.54;100332.13;5044236;28;1132;-15
2023/03/25 09:16:05;;;;;;;;;;;;;;;26.95;26.90;100329.59;5055253;28;1160;-15
2023/03/25 09:18:31;;;;;;;;;;;;;;;27.16;26.80;100332.53;5056674;28;1091;-14
2023/03/25 09:20:57;;;;;;;;;;;;;;;27.50;26.45;100323.66;5055295;28;1140;-14
2023/03/25 09:23:22;;;;;;;;;;;;;;;27.25;26.68;100320.53;5043638;28;1917;-13
2023/03/25 09:25:48;;;;;;;;;;;;;;;27.26;26.48;100324.91;5055691;28;1120;-15
2023/03/25 09:28:13;;;;;;;;;;;;;;;26.95;26.95;100326.03;5056330;28;1040;-15
2023/03/25 09:30:40;;;;;;;;;;;;;;;27.36;26.72;100322.72;5054746;28;1144;-14
2023/03/25 09:33:06;;;;;;;;;;;;;;;27.41;26.53;100318.59;5055366;28;1238;-14
2023/03/25 09:35:31;;;;;;;;;;;;;;;27.34;26.44;100321.25;5040512;28;1048;-13
2023/03/25 09:37:57;;;;;;;;;;;;;;;26.76;27.27;100309.44;5038065;28;1139;-14
2023/03/25 09:40:22;;;;;;;;;;;;;;;27.16;27.22;100305.53;5054409;28;1033;-14
2023/03/25 09:42:52;;;;;;;;;;;;;;;26.83;27.55;100310.38;5029836;28;1918;-14
2023/03/25 09:45:26;;;;;;;;;;;;;;;27.37;26.63;100308.19;5034513;28;1079;-14
2023/03/25 09:47:54;;;;;;;;;;;;;;;27.15;26.99;100310.06;5019362;28;1035;-14
2023/03/25 09:50:19;;;;;;;;;;;;;;;26.82;27.33;100311.41;5037102;28;1130;-14
2023/03/25 09:52:48;;;;;;;;;;;;;;;27.07;26.93;100296.72;5032482;28;1016;-14
2023/03/25 09:55:14;;;;;;;;;;;;;;;27.67;26.63;100303.63;5025118;28;1153;-15
2023/03/25 09:57:48;;;;;;;;;;;;;;;27.36;26.74;100287.59;5019330;28;1073;-15
2023/03/25 10:00:17;;;;;;;;;;;;;;;27.42;26.59;100286.00;5024804;28;1120;-14
2023/03/25 10:02:51;;;;;;;;;;;;;;;27.10;26.67;100285.53;5034833;28;1910;-14
2023/03/25 10:05:17;;;;;;;;;;;;;;;27.30;26.74;100280.28;5031738;28;1210;-14
2023/03/25 10:07:49;;;;;;;;;;;;;;;27.19;26.97;100288.94;5021862;28;1062;-14
2023/03/25 10:10:14;;;;;;;;;;;;;;;27.57;26.27;100285.91;5028776;28;1099;-15
2023/03/25 10:12:46;;;;;;;;;;;;;;;27.08;27.15;100282.19;5030279;28;1095;-14
2023/03/25 10:15:13;;;;;;;;;;;;;;;27.22;26.96;100278.56;5028785;28;1181;-14
2023/03/25 10:17:55;;;;;;;;;;;;;;;27.43;26.66;100279.56;5034367;28;1211;-14
2023/03/25 10:20:24;;;;;;;;;;;;;;;27.42;27.12;100268.94;5022374;28;1028;-14
2023/03/25 10:22:55;;;;;;;;;;;;;;;27.26;27.09;100266.34;5015040;28;1992;-22
2023/03/25 10:25:21;;;;;;;;;;;;;;;27.19;27.04;100260.06;5028663;28;1167;-21
2023/03/25 10:27:48;;;;;;;;;;;;;;;27.57;26.78;100258.03;5016936;28;1156;-21
2023/03/25 10:30:16;;;;;;;;;;;;;;;27.90;26.48;100249.31;5032592;28;1172;-21
2023/03/25 10:32:45;;;;;;;;;;;;;;;27.78;26.46;100245.53;5017160;28;1170;-21
2023/03/25 10:35:13;;;;;;;;;;;;;;;27.67;26.28;100239.59;5029211;28;1208;-21
2023/03/25 10:37:40;;;;;;;;;;;;;;;27.53;26.48;100235.97;5021511;28;1163;-21
2023/03/25 10:40:26;;;;;;;;;;;;;;;27.67;26.84;100231.50;5021409;28;1075;-21
2023/03/25 10:42:56;;;;;;;;;;;;;;;27.67;26.58;100227.97;5049655;28;1910;-21
2023/03/25 10:45:23;;;;;;;;;;;;;;;27.69;26.77;100231.31;5018801;28;1227;-21
2023/03/25 10:47:49;;;;;;;;;;;;;;;27.77;26.51;100219.50;5032152;28;1049;-21
2023/03/25 10:50:15;;;;;;;;;;;;;;;27.81;26.03;100218.91;5026554;28;1207;-21
2023/03/25 10:52:41;;;;;;;;;;;;;;;27.99;26.19;100217.53;5047949;28;1116;-21
2023/03/25 10:55:08;;;;;;;;;;;;;;;27.61;26.62;100216.09;5036091;28;1052;-21
2023/03/25 10:57:33;;;;;;;;;;;;;;;27.29;27.49;100213.81;5021574;28;1108;-15
2023/03/25 11:00:05;;;;;;;;;;;;;;;27.73;26.88;100202.84;5040658;28;1206;-15
2023/03/25 11:02:31;;;;;;;;;;;;;;;27.74;26.82;100199.13;5043891;28;1906;-15
2023/03/25 11:04:58;;;;;;;;;;;;;;;27.80;26.60;100202.88;5049001;28;1084;-14
2023/03/25 11:07:44;;;;;;;;;;;;;;;27.48;27.36;100200.63;5035754;28;956;-14
2023/03/25 11:10:14;;;;;;;;;;;;;;;27.92;26.37;100195.03;5046851;28;1153;-14
2023/03/25 11:12:50;;;;;;;;;;;;;;;27.96;26.13;100205.25;5035736;28;1078;-15
2023/03/25 11:15:21;;;;;;;;;;;;;;;27.93;26.58;100194.00;5055309;28;1219;-14
2023/03/25 11:17:47;;;;;;;;;;;;;;;27.41;27.37;100195.19;5038141;28;1140;-14
2023/03/25 11:20:17;;;;;;;;;;;;;;;28.00;26.51;100178.66;5042546;28;1148;-15
2023/03/25 11:22:45;;;;;;;;;;;;;;;27.72;26.78;100176.88;5047028;28;1969;-14
2023/03/25 11:25:13;;;;;;;;;;;;;;;27.73;26.96;100170.44;5055509;28;1098;-14
2023/03/25 11:27:48;;;;;;;;;;;;;;;27.58;26.63;100168.69;5053406;28;1120;-14
2023/03/25 11:30:15;;;;;;;;;;;;;;;27.80;26.85;100163.19;5017730;28;1060;-14
2023/03/25 11:32:41;;;;;;;;;;;;;;;27.66;26.78;100161.44;5037966;28;1036;-21
2023/03/25 11:35:13;;;;;;;;;;;;;;;27.59;26.94;100169.53;5045145;28;890;-21
2023/03/25 11:37:46;;;;;;;;;;;;;;;27.69;26.90;100164.63;5019796;28;1097;-21
2023/03/25 11:40:15;;;;;;;;;;;;;;;27.39;27.46;100160.25;5034995;28;1139;-21
2023/03/25 11:42:44;;;;;;;;;;;;;;;27.32;27.65;100156.72;5039936;28;1979;-21
2023/03/25 11:45:23;;;;;;;;;;;;;;;27.28;27.80;100149.22;5039073;28;1036;-21
2023/03/25 11:47:49;;;;;;;;;;;;;;;27.85;26.76;100149.06;5031498;28;856;-21
2023/03/25 11:50:22;;;;;;;;;;;;;;;27.61;26.87;100137.75;5040933;28;1123;-22
2023/03/25 11:52:49;;;;;;;;;;;;;;;27.87;26.80;100131.63;5025579;28;1160;-21
2023/03/25 11:55:22;;;;;;;;;;;;;;;28.07;26.50;100135.41;5034044;28;1057;-21
2023/03/25 11:57:48;;;;;;;;;;;;;;;27.99;26.59;100139.16;5014344;28;1106;-21
2023/03/25 12:00:17;;;;;;;;;;;;;;;27.73;26.79;100138.84;5042367;28;902;-21
2023/03/25 12:02:42;;;;;;;;;;;;;;;27.74;26.37;100132.41;5047817;28;1971;-21
2023/03/25 12:05:08;;;;;;;;;;;;;;;27.57;26.71;100131.06;5026993;28;1119;-21
2023/03/25 12:07:40;;;;;;;;;;;;;;;28.07;26.29;100120.03;5058181;28;1191;-14
2023/03/25 12:10:06;;;;;;;;;;;;;;;28.26;26.41;100136.47;5046307;28;1108;-13
2023/03/25 12:12:44;;;;;;;;;;;;;;;27.90;26.36;100135.78;5049458;28;1020;-15
2023/03/25 12:15:26;;;;;;;;;;;;;;;27.83;26.46;100130.34;5046089;28;893;-15
2023/03/25 12:18:00;;;;;;;;;;;;;;;27.91;26.67;100134.72;5035241;28;1196;-14
2023/03/25 12:20:35;;;;;;;;;;;;;;;27.95;26.54;100129.75;5058308;28;1011;-15
2023/03/25 12:23:19;;;;;;;;;;;;;;;27.73;26.82;100127.19;5052854;28;1902;-14
2023/03/25 12:26:05;;;;;;;;;;;;;;;27.82;26.79;100127.84;5045688;28;1036;-15
2023/03/25 12:28:34;;;;;;;;;;;;;;;27.63;26.91;100130.25;5038519;28;1218;-15
2023/03/25 12:31:00;;;;;;;;;;;;;;;27.55;26.84;100130.41;5048569;28;1051;-15
2023/03/25 12:33:33;;;;;;;;;;;;;;;27.35;27.36;100128.47;5039546;28;1239;-14
2023/03/25 12:35:58;;;;;;;;;;;;;;;27.77;26.69;100116.81;5038326;28;873;-15
2023/03/25 12:38:35;;;;;;;;;;;;;;;27.57;26.83;100120.25;5042438;28;1118;-15
2023/03/25 12:41:00;;;;;;;;;;;;;;;27.41;27.18;100111.44;5025815;28;990;-15
2023/03/25 12:43:32;;;;;;;;;;;;;;;27.95;26.72;100111.69;5045189;28;1918;-15
2023/03/25 12:45:57;;;;;;;;;;;;;;;28.21;26.33;100104.63;5026870;28;1063;-15
2023/03/25 12:48:44;;;;;;;;;;;;;;;28.03;26.62;100099.84;5044389;28;957;-15
2023/03/25 12:51:16;;;;;;;;;;;;;;;27.68;26.71;100106.19;5057194;28;1114;-15
2023/03/25 12:54:15;;;;;;;;;;;;;;;27.50;27.04;100104.00;5038135;28;1124;-15